Time;durP1;ratioP1;P1;durP2;ratioP2;P2;SDS_P1;SDS_P2;PMS_P1;PMS_P2;Temp;Humidity;BMP_temperature;BMP_pressure;BME280_temperature;BME280_humidity;BME280_pressure;Samples;Min_cycle;Max_cycle;Signal;HPM_P1;HPM_P2
2023/07/15 00:00:36;;;;;;;6.43;3.57;;;20.50;53.70;;;;;;5230057;28;20195;-44
2023/07/15 00:03:12;;;;;;;2.87;2.67;;;20.60;53.90;;;;;;5221218;28;20493;-42
2023/07/15 00:05:42;;;;;;;2.70;2.50;;;20.60;53.90;;;;;;5222004;28;20465;-43
2023/07/15 00:08:13;;;;;;;3.10;2.90;;;20.60;54.50;;;;;;5223009;28;20488;-43
2023/07/15 00:10:46;;;;;;;3.20;3.00;;;20.60;54.00;;;;;;5232188;28;20218;-42
2023/07/15 00:13:18;;;;;;;3.20;2.90;;;20.60;54.10;;;;;;5241950;28;20432;-44
2023/07/15 00:15:53;;;;;;;5.50;3.00;;;20.60;54.20;;;;;;5220478;28;20478;-42
2023/07/15 00:18:25;;;;;;;6.97;3.17;;;20.60;54.20;;;;;;5240902;28;20443;-43
2023/07/15 00:20:55;;;;;;;3.13;2.90;;;20.70;54.40;;;;;;5235964;28;20448;-42
2023/07/15 00:23:26;;;;;;;4.23;3.47;;;20.60;54.40;;;;;;5243534;28;20874;-43
2023/07/15 00:25:57;;;;;;;2.73;2.60;;;20.60;54.60;;;;;;5224644;28;20193;-44
2023/07/15 00:28:27;;;;;;;5.77;3.00;;;20.60;54.80;;;;;;5243024;28;20717;-42
2023/07/15 00:30:58;;;;;;;6.37;2.73;;;20.60;54.80;;;;;;5242812;28;20198;-43
2023/07/15 00:33:29;;;;;;;4.30;3.10;;;20.60;55.00;;;;;;5240800;28;20174;-42
2023/07/15 00:35:59;;;;;;;4.70;2.70;;;20.60;55.20;;;;;;5245468;28;20179;-42
2023/07/15 00:38:30;;;;;;;3.73;2.77;;;20.60;55.40;;;;;;5242589;28;20207;-45
2023/07/15 00:41:01;;;;;;;2.80;2.70;;;20.50;55.50;;;;;;5227643;28;20224;-43
2023/07/15 00:43:58;;;;;;;6.17;3.07;;;20.50;55.60;;;;;;5246088;28;20573;-43
2023/07/15 00:47:03;;;;;;;3.23;2.93;;;20.50;55.90;;;;;;5244199;28;20189;-42
2023/07/15 00:49:34;;;;;;;3.60;3.10;;;20.50;56.00;;;;;;5224513;28;20433;-42
2023/07/15 00:52:10;;;;;;;3.20;3.00;;;20.40;56.20;;;;;;5224136;28;20476;-43
2023/07/15 00:54:45;;;;;;;3.07;2.80;;;20.40;56.40;;;;;;5220084;28;20824;-45
2023/07/15 00:57:17;;;;;;;3.47;3.17;;;20.30;56.60;;;;;;5239881;28;20431;-41
2023/07/15 00:59:52;;;;;;;2.70;2.50;;;20.30;57.00;;;;;;5214997;28;20460;-44
2023/07/15 01:02:22;;;;;;;3.20;2.90;;;20.30;57.10;;;;;;5237196;28;20428;-43
2023/07/15 01:04:54;;;;;;;3.60;2.90;;;20.20;57.30;;;;;;5235192;28;20457;-42
2023/07/15 01:07:25;;;;;;;4.07;2.73;;;20.10;57.60;;;;;;5222863;28;20179;-42
2023/07/15 01:09:56;;;;;;;5.37;3.13;;;20.00;57.70;;;;;;5224706;28;20437;-42
2023/07/15 01:12:26;;;;;;;3.50;2.97;;;20.00;58.10;;;;;;5222196;28;20433;-43
2023/07/15 01:14:57;;;;;;;2.83;2.57;;;20.00;58.30;;;;;;5246758;28;20218;-42
2023/07/15 01:17:28;;;;;;;5.47;3.67;;;19.90;58.50;;;;;;5229454;28;20179;-44
2023/07/15 01:19:58;;;;;;;5.50;3.27;;;19.80;58.70;;;;;;5223736;28;20250;-40
2023/07/15 01:22:29;;;;;;;4.27;2.87;;;19.80;58.90;;;;;;5229681;28;20226;-42
2023/07/15 01:25:00;;;;;;;3.87;3.30;;;19.80;59.00;;;;;;5241633;28;20194;-42
2023/07/15 01:27:30;;;;;;;4.37;3.00;;;19.70;59.20;;;;;;5235873;28;20179;-42
2023/07/15 01:30:01;;;;;;;4.47;3.20;;;19.70;59.40;;;;;;5233313;28;20273;-43
2023/07/15 01:32:31;;;;;;;3.43;3.13;;;19.70;59.60;;;;;;5245039;28;20178;-43
2023/07/15 01:35:05;;;;;;;3.53;3.30;;;19.60;59.70;;;;;;5239262;28;20195;-43
2023/07/15 01:37:35;;;;;;;3.33;3.20;;;19.60;59.90;;;;;;5219343;28;20175;-42
2023/07/15 01:40:09;;;;;;;3.20;3.07;;;19.50;60.00;;;;;;5242139;28;20440;-43
2023/07/15 01:42:42;;;;;;;8.60;3.70;;;19.50;60.30;;;;;;5226344;28;20179;-42
2023/07/15 01:45:13;;;;;;;3.00;2.80;;;19.50;60.50;;;;;;5237111;28;20456;-43
2023/07/15 01:47:44;;;;;;;3.87;3.30;;;19.40;60.80;;;;;;5215051;28;20578;-44
2023/07/15 01:50:15;;;;;;;3.10;2.90;;;19.40;61.10;;;;;;5241604;28;20610;-46
2023/07/15 01:52:45;;;;;;;3.63;3.40;;;19.30;61.30;;;;;;5224568;28;20266;-43
2023/07/15 01:55:16;;;;;;;3.00;2.80;;;19.30;61.60;;;;;;5246470;28;20280;-41
2023/07/15 01:57:46;;;;;;;3.17;2.83;;;19.30;62.10;;;;;;5244963;28;20221;-43
2023/07/15 02:00:17;;;;;;;4.63;3.10;;;19.30;62.10;;;;;;5241874;28;20199;-43
2023/07/15 02:02:49;;;;;;;5.33;4.00;;;19.30;62.40;;;;;;5224206;28;20642;-45
2023/07/15 02:05:19;;;;;;;3.63;3.30;;;19.30;62.90;;;;;;5230415;28;20206;-43
2023/07/15 02:07:50;;;;;;;3.23;2.93;;;19.20;62.90;;;;;;5219841;28;20434;-41
2023/07/15 02:10:23;;;;;;;3.50;3.20;;;19.20;63.20;;;;;;5232064;28;20195;-42
2023/07/15 02:12:53;;;;;;;5.87;3.20;;;19.20;63.60;;;;;;5243922;28;20249;-42
2023/07/15 02:15:24;;;;;;;8.97;3.17;;;19.10;63.90;;;;;;5242436;28;20538;-43
2023/07/15 02:17:54;;;;;;;5.07;3.40;;;19.10;64.50;;;;;;5242284;28;20182;-43
2023/07/15 02:20:25;;;;;;;3.37;3.23;;;19.00;64.80;;;;;;5246474;28;20175;-42
2023/07/15 02:22:56;;;;;;;4.90;3.50;;;18.90;65.30;;;;;;5224720;28;20182;-42
2023/07/15 02:25:26;;;;;;;7.63;3.20;;;18.90;65.90;;;;;;5241310;28;20202;-42
2023/07/15 02:27:57;;;;;;;4.80;3.27;;;18.90;66.50;;;;;;5211267;28;20201;-42
2023/07/15 02:30:28;;;;;;;6.63;3.70;;;18.90;67.20;;;;;;5208255;28;20560;-41
2023/07/15 02:32:59;;;;;;;7.47;3.50;;;18.80;67.70;;;;;;5226446;28;20228;-44
2023/07/15 02:35:29;;;;;;;4.43;3.60;;;18.80;68.30;;;;;;5242568;28;20456;-43
2023/07/15 02:38:00;;;;;;;8.73;2.80;;;18.80;69.10;;;;;;5238691;28;20218;-43
2023/07/15 02:40:31;;;;;;;3.90;3.23;;;18.70;69.80;;;;;;5226158;28;20179;-42
2023/07/15 02:43:01;;;;;;;3.47;3.17;;;18.70;70.60;;;;;;5237331;28;20201;-42
2023/07/15 02:45:32;;;;;;;3.90;3.23;;;18.70;71.50;;;;;;5233415;28;20291;-41
2023/07/15 02:48:03;;;;;;;3.60;3.40;;;18.70;72.00;;;;;;5217563;28;20182;-43
2023/07/15 02:50:33;;;;;;;6.80;3.37;;;18.60;73.40;;;;;;5228419;28;20247;-43
2023/07/15 02:53:04;;;;;;;10.53;3.33;;;18.60;74.40;;;;;;5225785;28;21003;-44
2023/07/15 02:55:35;;;;;;;6.93;3.27;;;18.60;75.50;;;;;;5239374;28;20206;-40
2023/07/15 02:58:05;;;;;;;3.40;3.20;;;18.60;76.40;;;;;;5220945;28;20183;-43
2023/07/15 03:00:39;;;;;;;3.50;3.30;;;18.60;77.30;;;;;;5236039;28;20189;-43
2023/07/15 03:03:10;;;;;;;4.23;3.60;;;18.60;79.10;;;;;;5216303;28;20201;-43
2023/07/15 03:05:49;;;;;;;9.93;3.57;;;18.50;79.30;;;;;;5240445;28;20925;-43
2023/07/15 03:08:20;;;;;;;4.67;3.60;;;18.60;80.50;;;;;;5239468;28;20448;-43
2023/07/15 03:10:51;;;;;;;3.20;2.90;;;18.50;81.20;;;;;;5240589;28;20951;-41
2023/07/15 03:13:21;;;;;;;6.33;3.80;;;18.50;82.20;;;;;;5211606;28;20486;-42
2023/07/15 03:15:52;;;;;;;12.23;4.23;;;18.40;83.30;;;;;;5243509;28;20611;-43
2023/07/15 03:18:25;;;;;;;5.23;3.40;;;18.40;84.40;;;;;;5218608;28;20636;-42
2023/07/15 03:20:57;;;;;;;6.23;3.80;;;18.40;85.30;;;;;;5244821;28;20431;-42
2023/07/15 03:23:27;;;;;;;4.23;4.00;;;18.40;86.20;;;;;;5226841;28;20441;-43
2023/07/15 03:25:58;;;;;;;6.50;3.00;;;18.40;87.20;;;;;;5242988;28;20432;-42
2023/07/15 03:28:29;;;;;;;16.40;3.30;;;18.50;88.10;;;;;;5245189;28;20182;-43
2023/07/15 03:30:59;;;;;;;4.50;4.07;;;18.50;88.80;;;;;;5224727;28;20198;-43
2023/07/15 03:33:30;;;;;;;4.83;3.97;;;18.50;89.70;;;;;;5225094;28;20321;-42
2023/07/15 03:36:00;;;;;;;3.90;3.57;;;18.50;90.00;;;;;;5246345;28;20185;-45
2023/07/15 03:38:31;;;;;;;8.53;4.10;;;18.50;90.40;;;;;;5241869;28;20182;-42
2023/07/15 03:41:02;;;;;;;3.90;3.60;;;18.60;90.60;;;;;;5212618;28;20185;-41
2023/07/15 03:43:32;;;;;;;7.17;3.63;;;18.60;90.90;;;;;;5231597;28;20654;-43
2023/07/15 03:46:03;;;;;;;3.53;3.23;;;18.60;91.10;;;;;;5232846;28;20182;-42
2023/07/15 03:48:34;;;;;;;3.90;3.70;;;18.60;91.30;;;;;;5234638;28;21205;-43
2023/07/15 03:51:06;;;;;;;7.23;4.37;;;18.60;91.60;;;;;;5205013;28;20203;-43
2023/07/15 03:53:37;;;;;;;3.87;3.57;;;18.60;92.00;;;;;;5222229;28;20208;-44
2023/07/15 03:56:07;;;;;;;4.07;3.67;;;18.60;92.20;;;;;;5236393;28;20452;-42
2023/07/15 03:58:38;;;;;;;5.53;3.90;;;18.60;92.50;;;;;;5244021;28;20251;-43
2023/07/15 04:01:09;;;;;;;4.10;3.80;;;18.60;92.90;;;;;;5241051;28;20178;-44
2023/07/15 04:03:39;;;;;;;4.40;3.87;;;18.60;93.20;;;;;;5239343;28;20210;-43
2023/07/15 04:06:10;;;;;;;3.80;3.43;;;18.70;93.50;;;;;;5239833;28;20266;-43
2023/07/15 04:08:40;;;;;;;4.20;3.90;;;18.70;93.70;;;;;;5216339;28;20235;-43
2023/07/15 04:11:11;;;;;;;4.37;4.07;;;18.80;93.90;;;;;;5237758;28;20210;-45
2023/07/15 04:13:42;;;;;;;4.53;4.07;;;18.80;93.90;;;;;;5219159;28;20639;-45
2023/07/15 04:16:13;;;;;;;4.33;4.03;;;18.80;94.10;;;;;;5239371;28;20178;-42
2023/07/15 04:18:44;;;;;;;6.00;4.37;;;18.90;94.20;;;;;;5227459;28;20205;-42
2023/07/15 04:21:14;;;;;;;4.17;3.80;;;18.90;94.20;;;;;;5244005;28;20428;-42
2023/07/15 04:23:45;;;;;;;4.00;3.70;;;19.00;94.20;;;;;;5233678;28;20285;-41
2023/07/15 04:26:22;;;;;;;4.40;3.57;;;19.30;93.90;;;;;;5238963;28;20182;-42
2023/07/15 04:28:54;;;;;;;6.13;3.77;;;19.50;93.20;;;;;;5241559;28;20189;-42
2023/07/15 04:31:25;;;;;;;3.97;3.57;;;20.00;91.90;;;;;;5238528;28;20555;-42
2023/07/15 04:33:55;;;;;;;6.67;4.00;;;20.20;91.00;;;;;;5235637;28;20535;-42
2023/07/15 04:36:26;;;;;;;3.60;3.40;;;20.10;90.90;;;;;;5235706;28;20171;-42
2023/07/15 04:38:57;;;;;;;4.20;3.97;;;20.10;90.80;;;;;;5232206;28;20175;-42
2023/07/15 04:41:27;;;;;;;6.03;4.03;;;20.10;90.80;;;;;;5235915;28;20620;-43
2023/07/15 04:43:58;;;;;;;5.97;4.37;;;20.20;90.80;;;;;;5229488;28;20235;-43
2023/07/15 04:46:29;;;;;;;4.57;4.03;;;20.30;90.70;;;;;;5225538;28;20265;-43
2023/07/15 04:49:00;;;;;;;4.63;3.47;;;20.40;90.50;;;;;;5244719;28;20183;-43
2023/07/15 04:51:31;;;;;;;3.90;3.60;;;20.50;90.00;;;;;;5239257;28;20456;-42
2023/07/15 04:54:02;;;;;;;4.93;3.47;;;20.70;89.80;;;;;;5244647;22;20630;-48
2023/07/15 04:56:33;;;;;;;6.63;4.20;;;20.80;89.10;;;;;;5241891;28;20202;-45
2023/07/15 04:59:05;;;;;;;4.17;3.97;;;21.10;88.50;;;;;;5264216;28;20981;-49
2023/07/15 05:01:36;;;;;;;5.40;3.63;;;21.40;86.50;;;;;;5249499;28;20436;-47
2023/07/15 05:04:06;;;;;;;3.87;3.67;;;21.70;84.80;;;;;;5239850;28;20461;-45
2023/07/15 05:06:37;;;;;;;6.73;3.50;;;22.00;82.70;;;;;;5240950;28;20198;-46
2023/07/15 05:09:09;;;;;;;6.50;4.00;;;22.40;80.90;;;;;;5224584;28;20193;-45
2023/07/15 05:11:40;;;;;;;4.53;4.20;;;22.80;78.80;;;;;;5223505;28;20215;-47
2023/07/15 05:14:11;;;;;;;3.80;3.50;;;23.20;76.10;;;;;;5221960;28;20558;-47
2023/07/15 05:16:43;;;;;;;3.53;3.20;;;23.70;74.60;;;;;;5226210;28;20635;-46
2023/07/15 05:19:13;;;;;;;4.03;3.60;;;24.30;70.20;;;;;;5240910;28;20175;-47
2023/07/15 05:21:44;;;;;;;4.00;3.57;;;25.10;68.20;;;;;;5242250;28;20936;-46
2023/07/15 05:24:15;;;;;;;11.73;3.90;;;25.90;64.10;;;;;;5242396;28;20211;-48
2023/07/15 05:26:46;;;;;;;3.03;2.83;;;26.80;60.40;;;;;;5223392;28;20751;-46
2023/07/15 05:29:16;;;;;;;4.37;3.80;;;27.40;56.60;;;;;;5223855;28;20433;-47
2023/07/15 05:31:47;;;;;;;5.80;3.43;;;28.20;54.20;;;;;;5245005;28;20206;-46
2023/07/15 05:34:19;;;;;;;4.63;3.90;;;28.70;52.50;;;;;;5226756;28;20203;-46
2023/07/15 05:36:50;;;;;;;4.93;3.30;;;28.90;50.90;;;;;;5241670;28;20189;-46
2023/07/15 05:39:20;;;;;;;3.50;3.20;;;29.50;50.30;;;;;;5225302;28;20437;-46
2023/07/15 05:41:51;;;;;;;4.37;3.10;;;30.00;49.00;;;;;;5243534;28;20193;-46
2023/07/15 05:44:22;;;;;;;5.70;3.20;;;30.70;47.30;;;;;;5222754;28;20628;-47
2023/07/15 05:46:53;;;;;;;9.67;3.03;;;31.90;45.80;;;;;;5216261;28;20232;-46
2023/07/15 05:49:23;;;;;;;3.47;3.17;;;33.00;42.70;;;;;;5221060;28;20186;-46
2023/07/15 05:51:54;;;;;;;2.77;2.57;;;33.60;41.00;;;;;;5221330;28;20228;-48
2023/07/15 05:54:25;;;;;;;4.37;3.80;;;33.50;40.50;;;;;;5217924;28;20256;-47
2023/07/15 05:56:55;;;;;;;3.77;2.90;;;34.10;39.30;;;;;;5234116;28;20445;-47
2023/07/15 05:59:26;;;;;;;4.13;2.67;;;34.50;38.10;;;;;;5236337;28;20186;-47
2023/07/15 06:01:57;;;;;;;3.40;3.03;;;33.80;38.70;;;;;;5235726;28;20190;-47
2023/07/15 06:04:27;;;;;;;2.97;2.70;;;34.10;38.30;;;;;;5224702;28;20264;-46
2023/07/15 06:06:58;;;;;;;3.27;2.97;;;34.50;37.60;;;;;;5238206;28;20197;-45
2023/07/15 06:09:29;;;;;;;5.20;2.93;;;34.90;36.50;;;;;;5221286;28;20216;-49
2023/07/15 06:11:59;;;;;;;4.40;3.10;;;35.10;36.40;;;;;;5236483;28;20217;-48
2023/07/15 06:14:30;;;;;;;2.67;2.57;;;35.70;35.20;;;;;;5237603;28;20210;-47
2023/07/15 06:17:00;;;;;;;2.47;2.38;;;36.00;34.60;;;;;;5236409;28;20716;-48
2023/07/15 06:19:31;;;;;;;2.85;2.53;;;37.10;34.00;;;;;;5222531;28;20178;-47
2023/07/15 06:22:02;;;;;;;2.63;2.53;;;37.60;32.90;;;;;;5235331;28;20541;-47
2023/07/15 06:24:32;;;;;;;3.20;3.00;;;38.40;31.20;;;;;;5241024;28;20205;-48
2023/07/15 06:27:03;;;;;;;3.05;2.85;;;38.10;31.20;;;;;;5241465;28;20611;-47
2023/07/15 06:29:34;;;;;;;5.03;2.80;;;37.50;31.10;;;;;;5236032;28;20266;-48
2023/07/15 06:32:05;;;;;;;3.70;2.83;;;36.30;32.80;;;;;;5219342;28;20236;-48
2023/07/15 06:34:35;;;;;;;2.58;2.47;;;36.80;33.00;;;;;;5239658;28;20203;-47
2023/07/15 06:37:06;;;;;;;2.47;2.38;;;37.20;32.50;;;;;;5235304;28;20225;-48
2023/07/15 06:39:37;;;;;;;2.40;2.28;;;37.60;32.20;;;;;;5235923;28;20262;-48
2023/07/15 06:42:07;;;;;;;5.20;2.50;;;38.70;30.70;;;;;;5225483;28;20650;-48
2023/07/15 06:44:38;;;;;;;2.70;2.45;;;39.20;29.80;;;;;;5210439;28;20232;-50
2023/07/15 06:47:08;;;;;;;2.80;2.67;;;39.70;29.60;;;;;;5216673;28;20186;-47
2023/07/15 06:49:39;;;;;;;10.68;2.70;;;40.80;28.80;;;;;;5225676;28;20252;-46
2023/07/15 06:52:10;;;;;;;2.70;2.55;;;41.40;27.70;;;;;;5209007;28;20240;-50
2023/07/15 06:54:40;;;;;;;6.10;2.08;;;40.40;27.90;;;;;;5204170;28;20638;-46
2023/07/15 06:57:11;;;;;;;3.88;2.78;;;40.20;28.10;;;;;;5220872;28;20194;-47
2023/07/15 06:59:42;;;;;;;2.83;2.63;;;39.60;28.60;;;;;;5219039;28;20281;-48
2023/07/15 07:02:12;;;;;;;5.85;3.25;;;38.90;28.90;;;;;;5215295;28;20197;-49
2023/07/15 07:04:43;;;;;;;1.83;1.83;;;40.00;29.00;;;;;;5232616;28;20312;-47
2023/07/15 07:07:13;;;;;;;2.50;2.30;;;41.40;27.70;;;;;;5231946;28;20189;-48
2023/07/15 07:09:44;;;;;;;2.75;2.65;;;42.60;26.40;;;;;;5235277;28;20185;-48
2023/07/15 07:12:15;;;;;;;3.22;2.92;;;43.20;25.80;;;;;;5225045;28;20213;-47
2023/07/15 07:14:45;;;;;;;5.35;3.10;;;43.70;25.30;;;;;;5224888;28;20190;-47
2023/07/15 07:17:16;;;;;;;3.13;2.83;;;43.20;25.50;;;;;;5214639;28;20641;-49
2023/07/15 07:19:47;;;;;;;2.00;1.90;;;42.20;25.80;;;;;;5238461;28;20545;-46
2023/07/15 07:22:17;;;;;;;4.30;2.90;;;41.20;26.80;;;;;;5212673;28;20197;-48
2023/07/15 07:24:49;;;;;;;2.95;2.30;;;41.40;27.00;;;;;;5223566;28;20221;-47
2023/07/15 07:27:19;;;;;;;7.97;2.92;;;41.80;26.40;;;;;;5224401;28;20182;-48
2023/07/15 07:29:52;;;;;;;2.80;2.70;;;41.20;26.60;;;;;;5239886;28;20622;-49
2023/07/15 07:32:23;;;;;;;3.03;2.72;;;41.20;26.90;;;;;;5219660;28;20190;-48
2023/07/15 07:34:53;;;;;;;2.45;2.35;;;40.60;27.20;;;;;;5239062;28;20204;-48
2023/07/15 07:37:24;;;;;;;4.45;2.72;;;41.60;27.00;;;;;;5232914;28;20634;-49
2023/07/15 07:39:55;;;;;;;7.60;2.85;;;42.50;26.00;;;;;;5218007;28;20211;-48
2023/07/15 07:42:25;;;;;;;3.95;3.05;;;43.50;25.10;;;;;;5234026;28;20739;-47
2023/07/15 07:44:56;;;;;;;2.47;2.28;;;44.00;24.40;;;;;;5225623;28;20198;-48
2023/07/15 07:47:26;;;;;;;4.10;2.58;;;43.20;24.80;;;;;;5238173;28;20186;-48
2023/07/15 07:49:57;;;;;;;2.97;2.67;;;43.10;25.20;;;;;;5221500;28;20531;-48
2023/07/15 07:52:27;;;;;;;2.53;2.33;;;43.00;24.90;;;;;;5226981;28;20628;-48
2023/07/15 07:54:58;;;;;;;4.13;2.53;;;42.60;25.50;;;;;;5245553;28;20202;-49
2023/07/15 07:57:29;;;;;;;3.15;2.95;;;42.50;25.80;;;;;;5241078;28;20660;-47
2023/07/15 07:59:59;;;;;;;3.42;2.90;;;42.20;25.60;;;;;;5225067;28;20181;-48
2023/07/15 08:02:30;;;;;;;2.53;2.42;;;41.60;25.90;;;;;;5242939;28;20542;-47
2023/07/15 08:05:01;;;;;;;4.38;1.83;;;41.20;26.20;;;;;;5242027;28;20678;-47
2023/07/15 08:07:31;;;;;;;2.70;2.55;;;41.30;26.40;;;;;;5236830;28;20209;-47
2023/07/15 08:10:02;;;;;;;2.65;2.45;;;41.60;25.80;;;;;;5219255;28;20244;-49
2023/07/15 08:12:33;;;;;;;4.10;2.42;;;42.30;25.80;;;;;;5248283;28;20260;-48
2023/07/15 08:15:04;;;;;;;7.53;2.53;;;42.20;25.60;;;;;;5234188;28;20337;-48
2023/07/15 08:17:35;;;;;;;3.00;2.55;;;42.60;25.30;;;;;;5219674;28;20658;-50
2023/07/15 08:20:08;;;;;;;2.75;2.65;;;43.20;25.10;;;;;;5213085;28;20189;-48
2023/07/15 08:22:38;;;;;;;3.90;2.28;;;43.60;24.80;;;;;;5238316;28;20596;-49
2023/07/15 08:25:09;;;;;;;3.42;3.13;;;44.20;24.40;;;;;;5243241;28;20236;-48
2023/07/15 08:27:39;;;;;;;2.97;2.50;;;44.20;23.90;;;;;;5209047;28;20272;-47
2023/07/15 08:30:10;;;;;;;2.67;1.95;;;43.50;24.40;;;;;;5220642;28;20189;-48
2023/07/15 08:32:41;;;;;;;3.83;1.95;;;42.50;25.30;;;;;;5238104;28;20183;-48
2023/07/15 08:35:12;;;;;;;1.95;1.85;;;42.70;25.00;;;;;;5222233;28;20666;-47
2023/07/15 08:37:43;;;;;;;5.18;2.42;;;42.80;24.90;;;;;;5237315;28;20519;-47
2023/07/15 08:40:14;;;;;;;2.80;2.30;;;42.80;25.30;;;;;;5241051;28;20190;-47
2023/07/15 08:42:44;;;;;;;3.50;2.60;;;41.40;25.70;;;;;;5217561;28;20190;-49
2023/07/15 08:45:16;;;;;;;7.53;2.15;;;40.10;27.20;;;;;;5205091;28;20202;-48
2023/07/15 08:47:47;;;;;;;2.88;2.17;;;40.00;27.80;;;;;;5215316;28;20543;-48
2023/07/15 08:50:18;;;;;;;2.45;2.35;;;39.80;27.90;;;;;;5230916;28;20704;-50
2023/07/15 08:52:49;;;;;;;2.53;2.42;;;39.10;28.40;;;;;;5243184;28;20220;-47
2023/07/15 08:55:20;;;;;;;3.00;2.13;;;38.30;28.70;;;;;;5222723;28;20646;-48
2023/07/15 08:57:51;;;;;;;4.68;2.38;;;37.20;29.50;;;;;;5217495;28;21521;-48
2023/07/15 09:00:22;;;;;;;2.58;2.47;;;36.00;30.70;;;;;;5207695;28;20312;-46
2023/07/15 09:02:53;;;;;;;3.15;2.53;;;34.80;32.10;;;;;;5198869;28;20188;-48
2023/07/15 09:05:23;;;;;;;4.20;3.55;;;34.00;33.40;;;;;;5228648;28;20190;-45
2023/07/15 09:07:56;;;;;;;2.58;2.38;;;33.50;34.50;;;;;;5242731;28;20186;-48
2023/07/15 09:10:28;;;;;;;2.03;1.92;;;33.10;35.00;;;;;;5241340;28;20206;-47
2023/07/15 09:12:58;;;;;;;2.78;2.55;;;32.90;35.90;;;;;;5249182;28;20648;-49
2023/07/15 09:15:29;;;;;;;11.32;2.88;;;32.70;36.30;;;;;;5243574;28;20239;-47
2023/07/15 09:18:00;;;;;;;4.65;2.42;;;32.60;36.10;;;;;;5201603;28;20626;-47
2023/07/15 09:20:30;;;;;;;2.53;2.33;;;32.70;35.80;;;;;;5239108;28;20182;-48
2023/07/15 09:23:01;;;;;;;2.60;2.40;;;32.70;36.20;;;;;;5226687;28;20276;-48
2023/07/15 09:25:32;;;;;;;2.47;2.27;;;32.50;36.20;;;;;;5224240;28;20225;-47
2023/07/15 09:28:03;;;;;;;2.00;2.00;;;32.50;36.30;;;;;;5225923;28;20186;-49
2023/07/15 09:30:33;;;;;;;3.07;2.00;;;32.40;36.20;;;;;;5239678;28;20233;-47
2023/07/15 09:33:04;;;;;;;2.70;2.30;;;32.40;36.70;;;;;;5238281;28;20189;-48
2023/07/15 09:35:36;;;;;;;2.20;2.10;;;32.30;37.00;;;;;;5228291;28;20241;-49
2023/07/15 09:38:10;;;;;;;4.63;2.30;;;32.10;37.00;;;;;;5236907;28;20240;-46
2023/07/15 09:40:41;;;;;;;2.43;2.23;;;32.40;36.80;;;;;;5233020;28;20182;-47
2023/07/15 09:43:12;;;;;;;2.23;2.13;;;32.60;36.90;;;;;;5210404;28;20181;-48
2023/07/15 09:45:44;;;;;;;4.43;2.53;;;32.70;36.80;;;;;;5227218;28;20255;-49
2023/07/15 09:48:18;;;;;;;1.70;1.70;;;32.70;36.00;;;;;;5231873;28;20217;-47
2023/07/15 09:50:50;;;;;;;2.13;2.03;;;32.50;36.50;;;;;;5241333;28;20205;-47
2023/07/15 09:53:21;;;;;;;2.10;1.90;;;32.70;36.60;;;;;;5242631;28;20276;-48
2023/07/15 09:55:52;;;;;;;2.40;1.90;;;32.90;36.70;;;;;;5216835;28;20296;-49
2023/07/15 09:58:24;;;;;;;2.00;1.92;;;32.80;36.30;;;;;;5241506;28;20210;-47
2023/07/15 10:01:11;;;;;;;3.80;2.63;;;32.90;36.50;;;;;;5242501;28;20178;-49
2023/07/15 10:03:47;;;;;;;2.70;1.93;;;32.90;36.30;;;;;;5237376;28;20186;-48
2023/07/15 10:06:19;;;;;;;3.90;2.77;;;33.00;36.80;;;;;;5222292;28;20186;-49
2023/07/15 10:08:50;;;;;;;2.23;2.13;;;33.00;36.30;;;;;;5237437;28;20189;-48
2023/07/15 10:11:21;;;;;;;6.30;2.67;;;33.00;36.50;;;;;;5204595;28;20201;-51
2023/07/15 10:13:52;;;;;;;2.75;2.55;;;33.20;36.50;;;;;;5220227;28;20662;-48
2023/07/15 10:16:23;;;;;;;1.75;1.70;;;33.00;36.70;;;;;;5237980;28;20224;-47
2023/07/15 10:18:56;;;;;;;2.05;1.95;;;33.00;36.50;;;;;;5234131;28;21227;-49
2023/07/15 10:21:27;;;;;;;2.10;2.00;;;33.10;36.30;;;;;;5239677;28;20181;-51
2023/07/15 10:24:16;;;;;;;2.22;2.03;;;33.00;36.20;;;;;;5232654;28;20229;-47
2023/07/15 10:26:51;;;;;;;9.05;1.75;;;33.00;36.50;;;;;;5237447;28;20178;-50
2023/07/15 10:29:24;;;;;;;1.95;1.85;;;33.00;36.20;;;;;;5221533;28;20178;-49
2023/07/15 10:32:13;;;;;;;2.00;1.73;;;33.00;36.30;;;;;;5237317;28;20259;-49
2023/07/15 10:34:52;;;;;;;6.20;2.80;;;33.20;36.70;;;;;;5223320;28;20205;-49
2023/07/15 10:37:22;;;;;;;5.38;2.50;;;33.30;36.60;;;;;;5239577;28;20173;-48
2023/07/15 10:39:53;;;;;;;1.83;1.73;;;33.40;36.70;;;;;;5241424;28;20824;-48
2023/07/15 10:42:24;;;;;;;2.08;1.98;;;33.50;36.60;;;;;;5240592;28;20200;-48
2023/07/15 10:44:55;;;;;;;2.60;2.17;;;33.50;35.60;;;;;;5240843;28;20213;-48
2023/07/15 10:47:28;;;;;;;13.00;2.67;;;33.30;34.50;;;;;;5242852;28;20192;-47
2023/07/15 10:49:59;;;;;;;5.72;2.33;;;33.30;34.80;;;;;;5203855;28;20201;-48
2023/07/15 10:52:30;;;;;;;4.57;2.90;;;33.40;35.20;;;;;;5244314;28;20209;-47
2023/07/15 10:55:00;;;;;;;2.60;2.50;;;33.50;34.70;;;;;;5240795;23;20311;-45
2023/07/15 10:57:31;;;;;;;2.42;1.92;;;33.50;35.00;;;;;;5235238;28;20709;-44
2023/07/15 11:00:06;;;;;;;3.03;2.33;;;33.50;32.90;;;;;;5208877;28;20184;-43
2023/07/15 11:02:36;;;;;;;2.42;2.20;;;33.50;33.10;;;;;;5238010;28;20193;-45
2023/07/15 11:05:07;;;;;;;2.05;1.95;;;33.50;33.20;;;;;;5226758;28;20697;-45
2023/07/15 11:07:39;;;;;;;3.90;2.40;;;33.40;33.60;;;;;;5194657;28;20182;-46
2023/07/15 11:10:12;;;;;;;1.80;1.70;;;33.20;34.00;;;;;;5187914;28;20198;-43
2023/07/15 11:12:42;;;;;;;2.53;1.92;;;33.10;33.70;;;;;;5192041;28;20189;-44
2023/07/15 11:15:19;;;;;;;5.05;2.25;;;33.20;33.80;;;;;;5213919;28;20681;-46
2023/07/15 11:17:49;;;;;;;2.25;2.15;;;33.20;34.30;;;;;;5209128;28;20269;-43
2023/07/15 11:20:20;;;;;;;2.75;2.50;;;33.20;34.70;;;;;;5184140;28;20239;-43
2023/07/15 11:22:51;;;;;;;2.30;2.20;;;33.20;34.60;;;;;;5207445;28;20203;-45
2023/07/15 11:25:21;;;;;;;7.63;2.30;;;33.20;34.70;;;;;;5216961;28;20211;-43
2023/07/15 11:27:52;;;;;;;2.60;2.50;;;33.10;34.80;;;;;;5206963;28;20947;-43
2023/07/15 11:30:23;;;;;;;2.50;2.40;;;33.10;34.90;;;;;;5184001;28;20262;-44
2023/07/15 11:32:54;;;;;;;2.72;2.63;;;33.10;34.50;;;;;;5201215;28;20274;-43
2023/07/15 11:35:25;;;;;;;2.40;2.20;;;33.10;35.10;;;;;;5197438;28;20211;-44
2023/07/15 11:37:56;;;;;;;2.63;2.53;;;33.10;35.20;;;;;;5194860;28;20239;-44
2023/07/15 11:40:29;;;;;;;2.95;2.75;;;33.20;34.10;;;;;;5190469;28;20187;-44
2023/07/15 11:43:00;;;;;;;2.35;2.15;;;33.20;33.70;;;;;;5217625;28;20184;-43
2023/07/15 11:45:31;;;;;;;3.67;2.20;;;33.20;33.90;;;;;;5199665;28;20687;-43
2023/07/15 11:48:02;;;;;;;2.45;1.80;;;33.30;33.40;;;;;;5212036;28;20197;-44
2023/07/15 11:50:35;;;;;;;4.88;1.95;;;33.30;33.10;;;;;;5187413;28;20206;-43
2023/07/15 11:53:21;;;;;;;1.70;1.70;;;33.30;32.90;;;;;;5192288;28;20190;-44
2023/07/15 11:55:52;;;;;;;2.55;2.15;;;33.30;32.70;;;;;;5194562;28;20582;-44
2023/07/15 11:58:38;;;;;;;1.73;1.63;;;33.40;32.40;;;;;;5184019;28;20247;-44
2023/07/15 12:01:23;;;;;;;2.33;2.22;;;33.50;32.30;;;;;;5216586;28;20673;-45
2023/07/15 12:03:54;;;;;;;1.98;1.88;;;33.50;31.60;;;;;;5211727;28;20191;-43
2023/07/15 12:06:29;;;;;;;3.15;2.28;;;33.50;31.30;;;;;;5197934;28;20182;-44
2023/07/15 12:09:12;;;;;;;3.42;1.90;;;33.50;31.00;;;;;;5213701;28;20495;-45
2023/07/15 12:11:43;;;;;;;2.05;1.45;;;33.50;30.80;;;;;;5216298;28;20706;-43
2023/07/15 12:14:15;;;;;;;1.80;1.70;;;33.60;30.90;;;;;;5196218;28;20202;-44
2023/07/15 12:16:47;;;;;;;1.83;1.70;;;33.60;30.90;;;;;;5199428;28;20622;-44
2023/07/15 12:19:18;;;;;;;2.63;2.50;;;33.80;30.40;;;;;;5212029;28;20191;-44
2023/07/15 12:21:49;;;;;;;6.70;2.45;;;33.80;30.50;;;;;;5216265;28;20174;-43
2023/07/15 12:24:20;;;;;;;1.63;1.52;;;33.80;30.70;;;;;;5213945;28;20206;-44
2023/07/15 12:26:50;;;;;;;1.33;1.33;;;33.80;30.30;;;;;;5199478;28;20186;-42
2023/07/15 12:29:21;;;;;;;3.80;2.33;;;33.80;30.30;;;;;;5214150;28;20280;-43
2023/07/15 12:31:52;;;;;;;1.58;1.58;;;33.80;30.50;;;;;;5195657;28;21145;-43
2023/07/15 12:34:23;;;;;;;1.80;1.70;;;33.80;30.70;;;;;;5191234;28;20217;-47
2023/07/15 12:36:56;;;;;;;2.20;2.10;;;33.70;30.80;;;;;;5201075;28;20171;-44
2023/07/15 12:39:26;;;;;;;1.85;1.73;;;33.90;30.90;;;;;;5195747;28;20270;-44
2023/07/15 12:41:57;;;;;;;2.08;1.80;;;33.80;30.30;;;;;;5197828;28;20665;-43
2023/07/15 12:44:28;;;;;;;4.43;1.65;;;33.90;30.60;;;;;;5197413;28;20211;-44
2023/07/15 12:46:58;;;;;;;1.48;1.38;;;34.10;30.00;;;;;;5214453;28;20178;-43
2023/07/15 12:49:29;;;;;;;6.32;2.38;;;34.10;29.90;;;;;;5198283;28;20264;-43
2023/07/15 12:52:00;;;;;;;1.35;1.25;;;34.10;29.70;;;;;;5213329;28;20199;-43
2023/07/15 12:54:30;;;;;;;2.28;2.08;;;34.10;29.70;;;;;;5199980;28;20274;-43
2023/07/15 12:57:01;;;;;;;3.50;1.70;;;34.00;30.00;;;;;;5208981;28;20191;-43
2023/07/15 12:59:31;;;;;;;2.35;1.60;;;34.00;29.80;;;;;;5212695;28;20210;-44
2023/07/15 13:02:02;;;;;;;1.42;1.33;;;34.00;29.70;;;;;;5222867;28;20720;-45
2023/07/15 13:04:33;;;;;;;1.30;1.20;;;34.10;29.40;;;;;;5216083;28;21123;-44
2023/07/15 13:07:04;;;;;;;1.60;1.50;;;34.10;29.50;;;;;;5202350;28;20286;-45